Time;durP1;ratioP1;P1;durP2;ratioP2;P2;SDS_P1;SDS_P2;PMS_P1;PMS_P2;Temp;Humidity;BMP_temperature;BMP_pressure;BME280_temperature;BME280_humidity;BME280_pressure;Samples;Min_cycle;Max_cycle;Signal;HPM_P1;HPM_P2
2022/10/19 00:01:00;;;;;;;6.37;1.47;;;12.70;99.90;;;;;;5074674;28;20291;-55
2022/10/19 00:03:29;;;;;;;6.37;1.20;;;12.70;99.90;;;;;;5072767;28;20229;-55
2022/10/19 00:05:58;;;;;;;8.23;1.37;;;12.70;99.90;;;;;;5073241;28;20739;-55
2022/10/19 00:08:27;;;;;;;9.83;1.60;;;12.80;99.90;;;;;;5072982;28;20747;-55
2022/10/19 00:10:55;;;;;;;4.27;0.80;;;12.80;99.90;;;;;;5073168;28;20756;-55
2022/10/19 00:13:23;;;;;;;6.57;1.77;;;12.80;99.90;;;;;;5073123;28;20567;-55
2022/10/19 00:15:51;;;;;;;6.87;1.63;;;12.70;99.90;;;;;;5072949;28;20234;-55
2022/10/19 00:18:19;;;;;;;7.70;1.20;;;12.90;99.90;;;;;;5072752;28;20235;-55
2022/10/19 00:20:47;;;;;;;6.87;1.30;;;12.90;99.90;;;;;;5072032;28;20701;-56
2022/10/19 00:23:16;;;;;;;4.80;0.97;;;12.90;99.90;;;;;;5072527;28;20692;-55
2022/10/19 00:25:55;;;;;;;10.50;1.40;;;12.80;99.90;;;;;;5072718;28;20238;-55
2022/10/19 00:28:23;;;;;;;6.30;1.20;;;12.80;99.90;;;;;;5075324;28;20279;-55
2022/10/19 00:30:51;;;;;;;6.00;1.00;;;12.80;99.90;;;;;;5074357;28;20233;-55
2022/10/19 00:33:21;;;;;;;5.73;1.13;;;12.80;99.90;;;;;;5072618;28;20218;-55
2022/10/19 00:35:50;;;;;;;5.87;1.20;;;12.90;99.90;;;;;;5072297;28;20241;-56
2022/10/19 00:38:21;;;;;;;6.53;1.20;;;12.80;99.90;;;;;;5072896;28;20256;-55
2022/10/19 00:40:49;;;;;;;5.43;1.23;;;12.90;99.90;;;;;;5072685;28;20222;-55
2022/10/19 00:43:20;;;;;;;5.73;1.70;;;12.90;99.90;;;;;;5072805;28;20719;-55
2022/10/19 00:45:48;;;;;;;3.47;1.10;;;12.90;99.90;;;;;;5072280;28;20351;-55
2022/10/19 00:48:21;;;;;;;5.97;1.53;;;12.90;99.90;;;;;;5072793;28;20570;-55
2022/10/19 00:50:51;;;;;;;4.83;1.10;;;12.90;99.90;;;;;;5071177;28;20284;-56
2022/10/19 00:53:21;;;;;;;6.47;1.43;;;13.00;99.90;;;;;;5068934;28;20225;-55
2022/10/19 00:55:49;;;;;;;5.50;1.33;;;13.00;99.90;;;;;;5072145;28;20237;-55
2022/10/19 00:58:17;;;;;;;6.23;1.20;;;13.00;99.90;;;;;;5074600;28;20698;-56
2022/10/19 01:00:45;;;;;;;5.50;1.53;;;12.90;99.90;;;;;;5074978;28;20692;-54
2022/10/19 01:03:14;;;;;;;7.93;1.20;;;12.80;99.90;;;;;;5072554;28;20286;-55
2022/10/19 01:05:43;;;;;;;2.87;1.03;;;12.90;99.90;;;;;;5072145;28;20238;-55
2022/10/19 01:08:12;;;;;;;5.07;1.33;;;12.90;99.90;;;;;;5072569;28;20226;-55
2022/10/19 01:10:51;;;;;;;7.20;1.80;;;12.90;99.90;;;;;;5072387;28;20271;-55
2022/10/19 01:13:32;;;;;;;6.23;1.30;;;12.80;99.90;;;;;;5072543;28;20229;-55
2022/10/19 01:16:04;;;;;;;4.60;1.00;;;12.80;99.90;;;;;;5068918;28;20257;-55
2022/10/19 01:18:40;;;;;;;5.43;1.40;;;12.60;99.90;;;;;;5061765;28;20242;-55
2022/10/19 01:21:28;;;;;;;7.10;1.40;;;12.50;99.90;;;;;;5072096;28;20627;-56
2022/10/19 01:24:26;;;;;;;5.97;1.00;;;12.60;99.90;;;;;;5072054;28;20242;-55
2022/10/19 01:27:20;;;;;;;5.87;1.30;;;12.70;99.90;;;;;;5062296;28;20235;-55
2022/10/19 01:30:16;;;;;;;6.63;1.23;;;12.70;99.90;;;;;;5071881;28;20237;-54
2022/10/19 01:33:06;;;;;;;8.67;1.40;;;12.50;99.90;;;;;;5069534;28;20261;-55
2022/10/19 01:35:40;;;;;;;7.23;1.60;;;12.40;99.90;;;;;;5072040;28;20252;-55
2022/10/19 01:38:23;;;;;;;8.57;1.93;;;12.50;99.90;;;;;;5072287;28;20234;-56
2022/10/19 01:40:57;;;;;;;7.37;1.47;;;12.50;99.90;;;;;;5072315;28;20754;-55
2022/10/19 01:43:33;;;;;;;6.93;1.40;;;12.50;99.90;;;;;;5073127;28;20236;-55
2022/10/19 01:46:09;;;;;;;6.00;1.27;;;12.50;99.90;;;;;;5075908;28;20634;-55
2022/10/19 01:48:40;;;;;;;9.90;1.50;;;12.60;99.90;;;;;;5065061;28;20260;-55
2022/10/19 01:51:13;;;;;;;8.60;1.67;;;12.50;99.90;;;;;;5075445;28;20233;-55
2022/10/19 01:53:44;;;;;;;5.43;1.23;;;12.50;99.90;;;;;;5075021;28;20770;-56
2022/10/19 01:56:14;;;;;;;7.57;1.70;;;12.50;99.90;;;;;;5055362;28;20246;-55
2022/10/19 01:58:45;;;;;;;7.53;1.50;;;12.50;99.90;;;;;;5065881;28;20233;-55
2022/10/19 02:01:19;;;;;;;7.60;1.33;;;12.50;99.90;;;;;;5067115;28;20720;-56
2022/10/19 02:03:50;;;;;;;7.70;1.50;;;12.40;99.90;;;;;;5075284;28;20295;-55
2022/10/19 02:06:18;;;;;;;5.43;1.20;;;12.40;99.90;;;;;;5075185;28;20321;-56
2022/10/19 02:08:48;;;;;;;7.63;2.07;;;12.40;99.90;;;;;;5075251;28;20267;-55
2022/10/19 02:11:17;;;;;;;9.60;1.90;;;12.40;99.90;;;;;;5074845;28;20643;-55
2022/10/19 02:13:48;;;;;;;8.80;1.10;;;12.40;99.90;;;;;;5075138;28;20290;-56
2022/10/19 02:16:23;;;;;;;5.20;1.20;;;12.40;99.90;;;;;;5075285;28;20225;-56
2022/10/19 02:18:53;;;;;;;8.60;1.33;;;12.40;99.90;;;;;;5060853;28;20234;-55
2022/10/19 02:21:21;;;;;;;10.93;1.70;;;12.40;99.90;;;;;;5073964;28;20700;-56
2022/10/19 02:23:49;;;;;;;7.50;1.33;;;12.30;99.90;;;;;;5074368;28;20239;-55
2022/10/19 02:26:21;;;;;;;7.90;1.43;;;12.20;99.90;;;;;;5074795;28;20226;-55
2022/10/19 02:28:50;;;;;;;9.40;1.40;;;12.40;99.90;;;;;;5080531;28;20224;-55
2022/10/19 02:31:19;;;;;;;4.93;1.40;;;12.30;99.90;;;;;;5074204;28;20234;-56
2022/10/19 02:33:47;;;;;;;11.33;2.90;;;12.40;99.90;;;;;;5074508;28;20227;-56
2022/10/19 02:36:16;;;;;;;5.73;1.50;;;12.40;99.90;;;;;;5074488;28;20303;-55
2022/10/19 02:38:44;;;;;;;7.13;1.20;;;12.50;99.90;;;;;;5069560;28;20250;-55
2022/10/19 02:41:27;;;;;;;9.53;1.93;;;12.70;99.90;;;;;;5054535;28;20246;-55
2022/10/19 02:44:00;;;;;;;4.90;1.13;;;12.60;99.90;;;;;;5054397;28;20246;-55
2022/10/19 02:46:34;;;;;;;6.53;1.73;;;12.50;99.90;;;;;;5054255;28;20696;-55
2022/10/19 02:49:06;;;;;;;9.47;1.67;;;12.40;99.90;;;;;;5057234;28;20234;-55
2022/10/19 02:51:36;;;;;;;4.93;1.40;;;12.40;99.90;;;;;;5074160;28;20434;-56
2022/10/19 02:54:05;;;;;;;6.33;1.50;;;12.40;99.90;;;;;;5073284;28;20715;-55
2022/10/19 02:56:34;;;;;;;8.07;1.80;;;12.50;99.90;;;;;;5074138;28;20267;-55
2022/10/19 02:59:04;;;;;;;8.27;1.80;;;12.50;99.90;;;;;;5079774;28;20245;-56
2022/10/19 03:01:33;;;;;;;5.87;1.60;;;12.40;99.90;;;;;;5073586;28;20636;-55
2022/10/19 03:04:01;;;;;;;8.13;1.40;;;12.40;99.90;;;;;;5074060;28;20701;-56
2022/10/19 03:06:29;;;;;;;5.77;1.50;;;12.40;99.90;;;;;;5073883;28;20218;-55
2022/10/19 03:08:57;;;;;;;9.27;1.40;;;12.40;99.90;;;;;;5067479;28;20594;-55
2022/10/19 03:11:25;;;;;;;7.37;1.30;;;12.40;99.90;;;;;;5053749;28;20234;-54
2022/10/19 03:13:53;;;;;;;6.30;1.10;;;12.40;99.90;;;;;;5054218;28;20230;-55
2022/10/19 03:16:21;;;;;;;6.73;1.30;;;12.50;99.90;;;;;;5053894;28;20717;-55
2022/10/19 03:18:51;;;;;;;5.67;1.30;;;12.60;99.90;;;;;;5054974;28;20237;-55
2022/10/19 03:21:19;;;;;;;7.87;1.40;;;12.60;99.90;;;;;;5073880;28;20248;-56
2022/10/19 03:23:47;;;;;;;5.50;1.37;;;12.60;99.90;;;;;;5059246;28;20244;-56
2022/10/19 03:26:16;;;;;;;5.50;1.37;;;12.60;99.90;;;;;;5073605;28;20253;-55
2022/10/19 03:28:44;;;;;;;6.77;1.20;;;12.70;99.90;;;;;;5079247;28;20294;-55
2022/10/19 03:31:13;;;;;;;8.33;1.43;;;12.60;99.90;;;;;;5073211;28;20317;-55
2022/10/19 03:33:41;;;;;;;5.00;1.07;;;12.60;99.90;;;;;;5073638;28;20555;-55
2022/10/19 03:36:21;;;;;;;6.50;1.40;;;12.70;99.90;;;;;;5073494;28;20246;-55
2022/10/19 03:38:50;;;;;;;9.40;1.50;;;12.60;99.90;;;;;;5068339;28;20237;-55
2022/10/19 03:41:18;;;;;;;6.33;1.27;;;12.50;99.90;;;;;;5053408;28;20222;-55
2022/10/19 03:43:46;;;;;;;6.73;1.20;;;12.50;99.90;;;;;;5053366;28;20300;-55
2022/10/19 03:46:14;;;;;;;5.10;1.30;;;12.60;99.90;;;;;;5053594;28;20233;-55
2022/10/19 03:48:43;;;;;;;5.53;1.20;;;12.60;99.90;;;;;;5053278;28;20232;-55
2022/10/19 03:51:13;;;;;;;7.20;1.53;;;12.40;99.90;;;;;;5073298;28;20233;-55
2022/10/19 03:53:43;;;;;;;4.30;1.00;;;12.40;99.90;;;;;;5073041;28;20606;-54
2022/10/19 03:56:13;;;;;;;4.37;1.40;;;12.40;99.90;;;;;;5053411;28;20225;-55
2022/10/19 03:58:43;;;;;;;7.80;1.33;;;12.40;99.90;;;;;;5058150;28;20221;-56
2022/10/19 04:01:13;;;;;;;6.40;1.30;;;12.40;99.90;;;;;;5072623;28;20235;-55
2022/10/19 04:03:41;;;;;;;7.00;1.40;;;12.40;99.90;;;;;;5073015;28;20692;-55
2022/10/19 04:06:12;;;;;;;4.97;1.30;;;12.50;99.90;;;;;;5072603;28;20220;-56
2022/10/19 04:08:48;;;;;;;7.63;1.30;;;12.40;99.90;;;;;;5072408;28;20731;-56
2022/10/19 04:11:18;;;;;;;8.37;1.73;;;12.40;99.90;;;;;;5072934;28;20240;-55
2022/10/19 04:13:48;;;;;;;6.30;1.00;;;12.30;99.90;;;;;;5072671;28;20218;-55
2022/10/19 04:16:16;;;;;;;5.30;1.20;;;12.20;99.90;;;;;;5072811;28;20237;-55
2022/10/19 04:18:44;;;;;;;5.97;1.20;;;12.20;99.90;;;;;;5072688;28;20220;-55
2022/10/19 04:21:21;;;;;;;8.17;1.20;;;12.20;99.90;;;;;;5065165;28;20238;-55
2022/10/19 04:23:52;;;;;;;6.90;1.10;;;12.30;99.90;;;;;;5072351;28;20240;-55
2022/10/19 04:26:20;;;;;;;6.10;1.60;;;12.30;99.90;;;;;;5072711;28;20274;-55
2022/10/19 04:28:49;;;;;;;5.20;0.90;;;12.30;99.90;;;;;;5078084;28;20218;-55
2022/10/19 04:31:17;;;;;;;5.83;1.10;;;12.30;99.90;;;;;;5072224;28;20242;-55
2022/10/19 04:33:45;;;;;;;5.10;1.30;;;12.40;99.90;;;;;;5072470;28;20230;-55
2022/10/19 04:36:19;;;;;;;5.67;1.20;;;12.30;99.90;;;;;;5072407;28;20244;-55
2022/10/19 04:38:47;;;;;;;5.70;1.00;;;12.40;99.90;;;;;;5068178;28;20237;-55
2022/10/19 04:41:19;;;;;;;7.53;1.30;;;12.50;99.90;;;;;;5052882;28;20222;-55
2022/10/19 04:43:47;;;;;;;4.63;1.20;;;12.60;99.90;;;;;;5052497;28;20693;-55
2022/10/19 04:46:17;;;;;;;7.33;1.20;;;12.50;99.90;;;;;;5071427;28;20733;-55
2022/10/19 04:48:47;;;;;;;6.87;1.20;;;12.40;99.90;;;;;;5072559;28;20291;-55
2022/10/19 04:51:15;;;;;;;6.17;1.30;;;12.40;99.90;;;;;;5072343;28;20236;-55
2022/10/19 04:53:44;;;;;;;6.03;1.10;;;12.40;99.90;;;;;;5072089;28;20228;-55
2022/10/19 04:56:14;;;;;;;4.63;0.93;;;12.40;99.90;;;;;;5072663;28;20711;-55
2022/10/19 04:58:44;;;;;;;6.23;1.30;;;12.40;99.90;;;;;;5077814;28;20237;-56
2022/10/19 05:01:14;;;;;;;8.60;1.30;;;12.40;99.90;;;;;;5064231;28;20245;-56
2022/10/19 05:03:42;;;;;;;4.73;1.03;;;12.40;99.90;;;;;;5067265;28;20256;-55
2022/10/19 05:06:10;;;;;;;10.07;1.10;;;12.40;99.90;;;;;;5072054;28;20688;-55
2022/10/19 05:08:39;;;;;;;3.73;0.73;;;12.40;99.90;;;;;;5072166;28;20233;-55
2022/10/19 05:11:08;;;;;;;4.87;1.13;;;12.40;99.90;;;;;;5072574;28;20240;-55
2022/10/19 05:13:37;;;;;;;7.57;1.37;;;12.40;99.90;;;;;;5072280;28;20236;-55
2022/10/19 05:16:09;;;;;;;8.03;1.60;;;12.50;99.90;;;;;;5068944;28;20242;-55
2022/10/19 05:18:38;;;;;;;5.03;1.23;;;12.60;99.90;;;;;;5073634;28;20218;-55
2022/10/19 05:21:08;;;;;;;5.70;1.10;;;12.50;99.90;;;;;;5076135;28;20232;-55
2022/10/19 05:23:36;;;;;;;5.53;1.27;;;12.40;99.90;;;;;;5075875;28;20225;-55
2022/10/19 05:26:06;;;;;;;7.57;1.23;;;12.50;99.90;;;;;;5075857;28;20237;-55
2022/10/19 05:28:35;;;;;;;5.03;1.10;;;12.50;99.90;;;;;;5073884;28;20588;-55
2022/10/19 05:31:10;;;;;;;6.27;1.20;;;12.40;99.90;;;;;;5079917;28;20243;-55
2022/10/19 05:33:39;;;;;;;5.53;1.30;;;12.30;99.90;;;;;;5077707;28;20226;-55
2022/10/19 05:36:15;;;;;;;5.67;1.40;;;12.30;99.90;;;;;;5074385;28;20245;-55
2022/10/19 05:38:44;;;;;;;5.53;1.40;;;12.20;99.90;;;;;;5076926;28;20226;-55
2022/10/19 05:41:13;;;;;;;6.30;1.40;;;12.40;99.90;;;;;;5076991;28;20557;-56
2022/10/19 05:43:42;;;;;;;7.00;1.30;;;12.40;99.90;;;;;;5080484;28;20267;-55
2022/10/19 05:46:13;;;;;;;5.97;1.30;;;12.50;99.90;;;;;;5074163;28;20237;-55
2022/10/19 05:48:41;;;;;;;6.97;1.30;;;12.50;99.90;;;;;;5072882;28;20231;-55
2022/10/19 05:51:12;;;;;;;5.17;1.27;;;12.40;99.90;;;;;;5078757;28;20229;-54
2022/10/19 05:53:41;;;;;;;5.60;1.00;;;12.40;99.90;;;;;;5079821;28;20298;-55
2022/10/19 05:56:12;;;;;;;3.03;1.10;;;12.30;99.90;;;;;;5076396;28;20229;-55
2022/10/19 05:58:41;;;;;;;7.53;1.47;;;12.30;99.90;;;;;;5084292;28;20246;-55
2022/10/19 06:01:10;;;;;;;6.20;1.20;;;12.30;99.90;;;;;;5067311;28;20238;-55
2022/10/19 06:03:38;;;;;;;8.10;2.43;;;12.30;99.90;;;;;;5078031;28;20257;-55
2022/10/19 06:06:08;;;;;;;7.00;1.43;;;12.40;99.90;;;;;;5079782;28;20225;-55
2022/10/19 06:08:37;;;;;;;5.60;1.20;;;12.30;99.90;;;;;;5077381;28;20230;-55
2022/10/19 06:11:06;;;;;;;4.70;1.30;;;12.20;99.90;;;;;;5077642;28;20220;-55
2022/10/19 06:13:35;;;;;;;7.33;1.50;;;12.20;99.90;;;;;;5082112;28;20221;-55
2022/10/19 06:16:03;;;;;;;7.93;1.77;;;12.30;99.90;;;;;;5083231;28;20228;-55
2022/10/19 06:18:33;;;;;;;6.10;1.20;;;12.20;99.90;;;;;;5074770;28;20236;-56
2022/10/19 06:21:03;;;;;;;5.63;1.27;;;12.30;99.90;;;;;;5080626;28;20708;-55
2022/10/19 06:23:31;;;;;;;4.17;1.20;;;12.40;99.90;;;;;;5074214;28;20227;-55
2022/10/19 06:26:01;;;;;;;6.43;1.17;;;12.40;99.90;;;;;;5074254;28;20254;-55
2022/10/19 06:28:29;;;;;;;5.83;1.87;;;12.40;99.90;;;;;;5073685;28;20230;-55
2022/10/19 06:30:58;;;;;;;4.20;1.20;;;12.50;99.90;;;;;;5081352;28;20237;-55
2022/10/19 06:33:26;;;;;;;6.93;1.50;;;12.60;99.90;;;;;;5074644;28;20781;-55
2022/10/19 06:35:56;;;;;;;7.70;1.87;;;12.60;99.90;;;;;;5078962;28;20257;-55
2022/10/19 06:38:24;;;;;;;6.03;1.60;;;12.50;99.90;;;;;;5073410;28;20237;-54
2022/10/19 06:40:52;;;;;;;3.87;1.17;;;12.50;99.90;;;;;;5071564;28;20229;-55
2022/10/19 06:43:20;;;;;;;7.70;1.50;;;12.40;99.90;;;;;;5082169;28;20240;-55
2022/10/19 06:45:48;;;;;;;5.13;1.50;;;12.40;99.90;;;;;;5082388;28;20777;-55
2022/10/19 06:48:16;;;;;;;6.03;1.90;;;12.40;99.90;;;;;;5082033;28;20226;-55
2022/10/19 06:50:44;;;;;;;4.47;1.73;;;12.40;99.90;;;;;;5076919;28;20715;-55
2022/10/19 06:53:13;;;;;;;5.90;1.90;;;12.40;99.90;;;;;;5083009;28;20235;-55
2022/10/19 06:55:41;;;;;;;8.30;2.03;;;12.50;99.90;;;;;;5082941;28;20256;-56
2022/10/19 06:58:09;;;;;;;6.33;2.07;;;12.40;99.90;;;;;;5077474;28;20229;-56
2022/10/19 07:00:37;;;;;;;8.87;2.53;;;12.50;99.90;;;;;;5080434;28;20248;-54
2022/10/19 07:03:05;;;;;;;6.87;2.00;;;12.60;99.90;;;;;;5077330;28;20236;-55
2022/10/19 07:05:33;;;;;;;8.20;1.70;;;12.50;99.90;;;;;;5077627;28;20226;-55
2022/10/19 07:08:01;;;;;;;10.43;2.27;;;12.50;99.90;;;;;;5074599;28;20693;-56
2022/10/19 07:10:31;;;;;;;7.47;1.87;;;12.60;99.90;;;;;;5069906;28;20296;-55
2022/10/19 07:12:59;;;;;;;7.23;1.80;;;12.60;99.90;;;;;;5072777;28;20221;-56
2022/10/19 07:15:27;;;;;;;8.27;1.70;;;12.60;99.90;;;;;;5070618;28;20758;-55
2022/10/19 07:17:55;;;;;;;7.90;1.83;;;12.60;99.90;;;;;;5073067;28;20233;-56
2022/10/19 07:20:23;;;;;;;8.63;2.30;;;12.60;99.90;;;;;;5074539;28;20226;-55
2022/10/19 07:22:51;;;;;;;11.13;2.17;;;12.60;99.90;;;;;;5077829;28;20222;-55
2022/10/19 07:25:19;;;;;;;9.43;1.93;;;12.60;99.90;;;;;;5077466;28;20226;-55
2022/10/19 07:27:48;;;;;;;7.57;2.10;;;12.70;99.90;;;;;;5078581;28;20594;-55
2022/10/19 07:30:16;;;;;;;5.70;1.53;;;12.70;99.90;;;;;;5076164;28;20230;-55
2022/10/19 07:32:44;;;;;;;5.77;1.50;;;12.70;99.90;;;;;;5070510;28;20245;-54
2022/10/19 07:35:14;;;;;;;7.77;1.83;;;12.80;99.90;;;;;;5069307;28;20249;-55
2022/10/19 07:37:42;;;;;;;13.57;2.27;;;12.90;99.90;;;;;;5073029;28;20594;-55
2022/10/19 07:40:12;;;;;;;5.90;1.40;;;12.90;99.90;;;;;;5072703;28;20869;-55
2022/10/19 07:42:40;;;;;;;5.47;1.40;;;13.10;99.90;;;;;;5069687;28;20233;-55
2022/10/19 07:45:10;;;;;;;10.13;1.93;;;13.10;99.90;;;;;;5078472;28;20215;-55
2022/10/19 07:47:38;;;;;;;5.60;1.60;;;13.10;99.90;;;;;;5073121;28;20221;-55
2022/10/19 07:50:06;;;;;;;7.13;1.63;;;13.00;99.90;;;;;;5079521;28;20236;-55
2022/10/19 07:52:34;;;;;;;7.63;1.77;;;13.10;99.90;;;;;;5076704;28;20636;-55
2022/10/19 07:55:04;;;;;;;6.57;1.47;;;13.30;99.90;;;;;;5083470;28;20707;-55
2022/10/19 07:57:32;;;;;;;6.77;1.83;;;13.30;99.90;;;;;;5077473;28;20218;-55
2022/10/19 08:00:00;;;;;;;6.90;2.10;;;13.50;99.90;;;;;;5074667;28;20233;-55
2022/10/19 08:02:30;;;;;;;10.60;1.90;;;13.60;99.90;;;;;;5080589;28;20317;-55
2022/10/19 08:05:17;;;;;;;5.67;1.47;;;13.70;99.90;;;;;;5078092;28;20225;-55
2022/10/19 08:07:46;;;;;;;9.57;1.87;;;13.90;99.90;;;;;;5072358;28;20234;-55
2022/10/19 08:10:14;;;;;;;5.53;1.50;;;14.00;99.90;;;;;;5076049;28;20231;-55
2022/10/19 08:12:42;;;;;;;5.00;1.53;;;14.20;99.90;;;;;;5077293;28;20274;-55
2022/10/19 08:15:10;;;;;;;9.33;2.53;;;14.40;99.90;;;;;;5066632;28;20288;-55
2022/10/19 08:17:39;;;;;;;6.50;1.57;;;14.50;99.90;;;;;;5072179;28;20219;-55
2022/10/19 08:20:08;;;;;;;7.93;1.47;;;14.60;99.90;;;;;;5077678;28;20556;-56
2022/10/19 08:22:36;;;;;;;8.73;1.90;;;14.80;99.90;;;;;;5077952;28;20285;-55
2022/10/19 08:25:05;;;;;;;6.70;2.17;;;14.90;99.90;;;;;;5077641;28;20231;-55
2022/10/19 08:27:33;;;;;;;8.43;1.83;;;15.20;99.90;;;;;;5083393;28;20227;-55
2022/10/19 08:30:07;;;;;;;7.50;1.70;;;15.40;99.90;;;;;;5071995;28;20221;-55
2022/10/19 08:32:35;;;;;;;7.47;2.00;;;15.50;99.90;;;;;;5072019;28;20238;-55
2022/10/19 08:35:06;;;;;;;10.20;1.70;;;15.70;99.90;;;;;;5075556;28;20238;-56
2022/10/19 08:37:37;;;;;;;10.27;2.30;;;15.90;99.90;;;;;;5076019;28;20224;-55
2022/10/19 08:40:18;;;;;;;8.37;1.60;;;16.10;99.90;;;;;;5072555;28;20642;-55
2022/10/19 08:42:54;;;;;;;8.90;1.80;;;16.10;99.90;;;;;;5071296;28;20229;-55
2022/10/19 08:45:51;;;;;;;7.40;1.73;;;16.00;99.90;;;;;;5069865;28;20226;-56
2022/10/19 08:48:28;;;;;;;8.90;1.50;;;15.80;99.90;;;;;;5059037;28;20231;-55
2022/10/19 08:50:59;;;;;;;10.77;2.00;;;15.80;99.90;;;;;;5075834;28;20222;-55
2022/10/19 08:53:35;;;;;;;5.63;1.70;;;15.50;99.90;;;;;;5081149;28;20231;-55
2022/10/19 08:56:25;;;;;;;7.03;2.27;;;15.30;99.90;;;;;;5079442;28;21532;-56
2022/10/19 08:59:26;;;;;;;8.53;1.77;;;15.20;99.90;;;;;;5073228;28;20874;-55
2022/10/19 09:01:56;;;;;;;7.53;1.80;;;15.20;99.90;;;;;;5076640;28;20226;-55
2022/10/19 09:04:28;;;;;;;8.07;1.70;;;15.10;99.90;;;;;;5077073;28;20226;-55
2022/10/19 09:07:10;;;;;;;6.13;1.50;;;15.10;99.90;;;;;;5077391;28;21033;-56
2022/10/19 09:09:42;;;;;;;7.40;1.70;;;15.20;99.90;;;;;;5080312;28;20762;-56
2022/10/19 09:12:19;;;;;;;9.60;2.17;;;15.20;99.90;;;;;;5078606;28;20231;-56
2022/10/19 09:14:53;;;;;;;8.23;2.20;;;15.20;99.90;;;;;;5073327;28;20230;-55
2022/10/19 09:17:21;;;;;;;9.20;1.67;;;15.30;99.90;;;;;;5085371;28;20255;-55
2022/10/19 09:19:49;;;;;;;7.47;1.67;;;15.40;99.90;;;;;;5077554;28;20227;-55
2022/10/19 09:22:21;;;;;;;7.97;1.50;;;15.50;99.90;;;;;;5069445;28;20233;-55
2022/10/19 09:24:51;;;;;;;7.23;1.60;;;15.60;99.90;;;;;;5071340;28;20227;-55
2022/10/19 09:27:22;;;;;;;7.43;1.70;;;15.70;99.90;;;;;;5072511;28;20235;-56
2022/10/19 09:29:55;;;;;;;6.50;1.43;;;15.60;99.90;;;;;;5075122;28;20272;-55
2022/10/19 09:32:28;;;;;;;9.20;1.83;;;15.70;99.90;;;;;;5078288;28;20749;-54
2022/10/19 09:35:01;;;;;;;7.17;1.30;;;15.90;99.90;;;;;;5070166;28;20235;-56
2022/10/19 09:37:31;;;;;;;7.87;1.67;;;16.10;99.90;;;;;;5078271;28;20219;-55
2022/10/19 09:39:59;;;;;;;11.40;1.83;;;16.20;99.90;;;;;;5083181;28;20234;-56
2022/10/19 09:42:29;;;;;;;7.23;1.80;;;15.90;99.90;;;;;;5083702;28;20264;-55
2022/10/19 09:44:59;;;;;;;7.30;1.50;;;15.60;99.90;;;;;;5072942;28;20227;-56
2022/10/19 09:47:33;;;;;;;10.13;1.70;;;15.60;99.90;;;;;;5081029;28;20238;-55
2022/10/19 09:50:13;;;;;;;7.07;1.50;;;15.60;99.90;;;;;;5083009;28;20228;-55
2022/10/19 09:52:44;;;;;;;5.27;1.50;;;15.50;99.90;;;;;;5080816;28;20616;-55
2022/10/19 09:55:27;;;;;;;8.23;1.90;;;15.40;99.90;;;;;;5073521;28;20689;-56
2022/10/19 09:58:02;;;;;;;8.10;1.80;;;15.30;99.90;;;;;;5075842;28;20261;-55
2022/10/19 10:00:37;;;;;;;5.10;1.30;;;15.20;99.90;;;;;;5079385;28;20710;-55
2022/10/19 10:03:07;;;;;;;5.03;1.30;;;15.10;99.90;;;;;;5074484;28;20272;-55
2022/10/19 10:05:37;;;;;;;6.63;1.93;;;15.20;99.90;;;;;;5074317;28;20242;-56
2022/10/19 10:08:13;;;;;;;7.17;1.33;;;15.20;99.90;;;;;;5079331;28;20754;-56
2022/10/19 10:10:45;;;;;;;5.60;1.40;;;15.30;99.90;;;;;;5077902;28;20226;-55
2022/10/19 10:13:17;;;;;;;7.50;1.60;;;15.40;99.90;;;;;;5060021;28;20235;-55
2022/10/19 10:15:54;;;;;;;4.10;1.20;;;15.50;99.90;;;;;;5055140;28;20235;-55
2022/10/19 10:18:24;;;;;;;7.30;1.30;;;15.30;99.90;;;;;;5058968;28;20574;-54
2022/10/19 10:21:03;;;;;;;7.37;1.40;;;15.20;99.90;;;;;;5074419;28;20318;-55
2022/10/19 10:23:36;;;;;;;5.10;1.30;;;15.20;99.90;;;;;;5074890;28;20246;-55
2022/10/19 10:26:14;;;;;;;9.03;1.83;;;15.20;99.90;;;;;;5075092;28;20716;-55
2022/10/19 10:28:47;;;;;;;5.97;1.50;;;15.10;99.90;;;;;;5077483;28;20234;-55
2022/10/19 10:31:19;;;;;;;7.80;1.60;;;15.10;99.90;;;;;;5081733;28;20230;-55
2022/10/19 10:33:54;;;;;;;6.10;1.30;;;15.20;99.90;;;;;;5083428;28;20230;-55
2022/10/19 10:36:25;;;;;;;6.17;1.20;;;15.70;99.90;;;;;;5083768;28;20273;-55
2022/10/19 10:39:02;;;;;;;5.97;1.17;;;16.40;99.90;;;;;;5082711;28;20727;-55
2022/10/19 10:41:39;;;;;;;6.43;1.43;;;16.80;99.90;;;;;;5075545;28;20222;-55
2022/10/19 10:44:14;;;;;;;4.27;1.13;;;17.40;99.90;;;;;;5068290;28;20717;-56
2022/10/19 10:46:51;;;;;;;4.60;1.20;;;17.60;99.90;;;;;;5075103;28;20234;-54
2022/10/19 10:49:22;;;;;;;4.90;1.03;;;17.10;99.90;;;;;;5075053;28;20243;-55
2022/10/19 10:51:55;;;;;;;3.77;1.10;;;16.60;99.90;;;;;;5066752;28;20239;-55
2022/10/19 10:54:26;;;;;;;5.13;1.00;;;16.30;99.90;;;;;;5068119;28;21438;-54
2022/10/19 10:57:18;;;;;;;5.57;1.17;;;16.10;99.90;;;;;;5070192;28;20237;-55
2022/10/19 10:59:56;;;;;;;4.67;1.00;;;15.80;99.90;;;;;;5068939;28;20231;-55
2022/10/19 11:02:35;;;;;;;4.67;1.30;;;15.60;99.90;;;;;;5066563;28;20235;-53
2022/10/19 11:05:10;;;;;;;5.77;1.20;;;15.60;99.90;;;;;;5066124;28;20954;-54
2022/10/19 11:07:42;;;;;;;5.93;1.53;;;15.90;99.90;;;;;;5066351;28;20229;-55
2022/10/19 11:10:21;;;;;;;6.00;1.10;;;16.40;99.90;;;;;;5067780;28;20265;-55
2022/10/19 11:12:56;;;;;;;4.70;1.40;;;16.60;99.90;;;;;;5065722;28;20230;-54
2022/10/19 11:15:28;;;;;;;2.33;0.80;;;16.90;99.90;;;;;;5066795;28;20230;-54
2022/10/19 11:18:06;;;;;;;5.63;1.30;;;17.20;99.90;;;;;;5068933;28;20223;-55
2022/10/19 11:20:41;;;;;;;2.50;0.93;;;17.70;99.90;;;;;;5068237;28;20231;-54
2022/10/19 11:23:18;;;;;;;5.53;1.30;;;17.90;99.90;;;;;;5067100;28;20257;-56
2022/10/19 11:26:10;;;;;;;5.50;1.17;;;17.70;99.90;;;;;;5068248;28;20234;-55
2022/10/19 11:28:55;;;;;;;4.13;0.87;;;17.80;99.90;;;;;;5066757;28;20234;-55
2022/10/19 11:31:35;;;;;;;5.37;1.10;;;17.90;99.90;;;;;;5065622;28;20241;-55
2022/10/19 11:34:13;;;;;;;3.97;1.00;;;17.90;99.90;;;;;;5066017;28;20691;-55
2022/10/19 11:36:51;;;;;;;4.77;1.20;;;17.70;99.90;;;;;;5066195;28;20278;-55
2022/10/19 11:39:34;;;;;;;4.40;1.00;;;17.80;99.90;;;;;;5066222;28;20592;-56
2022/10/19 11:42:15;;;;;;;5.63;1.40;;;17.90;99.90;;;;;;5066374;28;20228;-55
2022/10/19 11:44:57;;;;;;;5.07;1.47;;;18.00;99.90;;;;;;5068067;28;20587;-55
2022/10/19 11:47:54;;;;;;;5.33;1.43;;;17.60;99.90;;;;;;5068218;28;20707;-54
2022/10/19 11:50:33;;;;;;;4.23;1.00;;;17.20;99.90;;;;;;5067089;28;20239;-56
2022/10/19 11:53:09;;;;;;;4.13;0.77;;;17.10;99.90;;;;;;5067555;28;20234;-54
2022/10/19 11:55:42;;;;;;;5.23;1.07;;;17.10;99.90;;;;;;5067154;28;20241;-54
2022/10/19 11:58:32;;;;;;;5.57;1.00;;;16.90;99.90;;;;;;5066196;28;20234;-56
2022/10/19 12:01:11;;;;;;;6.13;1.30;;;17.00;99.90;;;;;;5064847;28;20338;-54
2022/10/19 12:04:07;;;;;;;3.50;1.00;;;17.00;99.90;;;;;;5065026;28;20737;-56
2022/10/19 12:06:44;;;;;;;3.90;1.10;;;17.00;99.90;;;;;;5064742;28;20227;-55
2022/10/19 12:09:26;;;;;;;4.17;1.07;;;16.90;99.90;;;;;;5064340;28;20242;-54
2022/10/19 12:12:14;;;;;;;3.57;1.03;;;17.00;99.90;;;;;;5063958;28;20238;-54
2022/10/19 12:14:49;;;;;;;2.57;0.90;;;16.90;99.90;;;;;;5064937;28;20285;-54
2022/10/19 12:17:23;;;;;;;5.40;1.30;;;16.80;99.90;;;;;;5065213;28;20284;-56
2022/10/19 12:19:55;;;;;;;4.00;0.97;;;16.80;99.90;;;;;;5064721;28;20240;-54
2022/10/19 12:22:28;;;;;;;4.30;1.07;;;16.80;99.90;;;;;;5063739;28;20254;-53
2022/10/19 12:24:59;;;;;;;4.10;1.43;;;16.80;99.90;;;;;;5063956;28;20245;-54
2022/10/19 12:27:31;;;;;;;4.97;1.07;;;16.80;99.90;;;;;;5064403;28;20220;-55
2022/10/19 12:30:07;;;;;;;4.87;1.13;;;16.80;99.90;;;;;;5065257;28;20710;-55
2022/10/19 12:32:44;;;;;;;2.87;1.20;;;16.80;99.90;;;;;;5063386;28;20234;-55
2022/10/19 12:35:27;;;;;;;3.90;1.20;;;16.60;99.90;;;;;;5064706;28;20255;-55
2022/10/19 12:38:00;;;;;;;4.27;1.23;;;16.60;99.90;;;;;;5063364;28;20231;-55
2022/10/19 12:40:36;;;;;;;4.53;1.20;;;16.40;99.90;;;;;;5063711;28;20634;-55
2022/10/19 12:43:10;;;;;;;5.27;1.27;;;16.40;99.90;;;;;;5064370;28;20226;-55
2022/10/19 12:45:44;;;;;;;3.63;1.07;;;16.30;99.90;;;;;;5064525;28;20230;-55
2022/10/19 12:48:19;;;;;;;7.80;1.60;;;16.20;99.90;;;;;;5063900;28;20233;-55
2022/10/19 12:51:02;;;;;;;6.73;1.40;;;16.00;99.90;;;;;;5065009;28;20237;-55
2022/10/19 12:53:34;;;;;;;3.00;1.10;;;15.90;99.90;;;;;;5067631;28;20590;-54
2022/10/19 12:56:05;;;;;;;5.77;1.57;;;16.00;99.90;;;;;;5067910;28;20326;-55
2022/10/19 12:58:39;;;;;;;5.90;1.50;;;16.00;99.90;;;;;;5065782;28;20281;-53
2022/10/19 13:01:19;;;;;;;4.50;1.60;;;15.90;99.90;;;;;;5064491;28;20231;-55
2022/10/19 13:03:51;;;;;;;5.37;1.20;;;15.80;99.90;;;;;;5063957;28;20238;-55
2022/10/19 13:06:31;;;;;;;4.43;1.60;;;15.70;99.90;;;;;;5063418;28;20234;-54
2022/10/19 13:09:02;;;;;;;5.53;1.57;;;15.60;99.90;;;;;;5063801;28;20305;-55
2022/10/19 13:11:31;;;;;;;4.67;1.20;;;15.60;99.90;;;;;;5062839;28;20285;-55